AXM710 WMKA-WMKC
Flight info
| Callsign | AXM710 |
|---|---|
| Flight time | 0h 41m |
| Altitude | 23000 |
| Route | GUTEB1B GUTEB DCT RINBA W546 OPOMO OPOMO1E |
| Aircraft | A320/M-SDE3FGHIRWY/LB1 |
Departure
| Time | 2026-04-29 12:50 |
|---|---|
| Airport | Sultan Abdul Halim Airport (WMKA) |
Arrival
| Time | 2026-04-29 13:32 |
|---|---|
| Airport | Sultan Ismail Petra Airport (WMKC) |
| Time | Latitude | Longitude | Altitude | Speed | Heading |
|---|---|---|---|---|---|
| 2026-04-29 12:41 | 6.19068 | 100.39688 | 26 ft | 0 kts | 43° |
| 2026-04-29 12:44 | 6.19070 | 100.39690 | 23 ft | 2 kts | 43° |
| 2026-04-29 12:44 | 6.19095 | 100.39714 | 23 ft | 6 kts | 43° |
| 2026-04-29 12:44 | 6.19111 | 100.39746 | 23 ft | 4 kts | 86° |
| 2026-04-29 12:44 | 6.19103 | 100.39769 | 24 ft | 3 kts | 117° |
| 2026-04-29 12:45 | 6.19085 | 100.39793 | 24 ft | 5 kts | 130° |
| 2026-04-29 12:45 | 6.19062 | 100.39820 | 25 ft | 4 kts | 131° |
| 2026-04-29 12:45 | 6.19051 | 100.39832 | 27 ft | 3 kts | 131° |
| 2026-04-29 12:45 | 6.19043 | 100.39895 | 30 ft | 14 kts | 59° |
| 2026-04-29 12:46 | 6.19120 | 100.39969 | 25 ft | 16 kts | 43° |
| 2026-04-29 12:46 | 6.19205 | 100.40048 | 24 ft | 17 kts | 42° |
| 2026-04-29 12:46 | 6.19293 | 100.40128 | 24 ft | 18 kts | 42° |
| 2026-04-29 12:46 | 6.19389 | 100.40217 | 23 ft | 20 kts | 43° |
| 2026-04-29 12:47 | 6.19494 | 100.40312 | 24 ft | 21 kts | 41° |
| 2026-04-29 12:47 | 6.19603 | 100.40411 | 24 ft | 22 kts | 42° |
| 2026-04-29 12:47 | 6.19717 | 100.40517 | 25 ft | 23 kts | 42° |
| 2026-04-29 12:47 | 6.19801 | 100.40590 | 26 ft | 10 kts | 38° |
| 2026-04-29 12:48 | 6.19861 | 100.40611 | 25 ft | 9 kts | 6° |
| 2026-04-29 12:48 | 6.19888 | 100.40647 | 25 ft | 6 kts | 112° |
| 2026-04-29 12:48 | 6.19858 | 100.40653 | 25 ft | 3 kts | 210° |
| 2026-04-29 12:48 | 6.19844 | 100.40636 | 27 ft | 4 kts | 232° |
| 2026-04-29 12:49 | 6.19821 | 100.40612 | 30 ft | 5 kts | 222° |
| 2026-04-29 12:49 | 6.19819 | 100.40610 | 30 ft | 0 kts | 222° |
| 2026-04-29 12:49 | 6.19801 | 100.40594 | 26 ft | 21 kts | 222° |
| 2026-04-29 12:49 | 6.19491 | 100.40309 | 24 ft | 95 kts | 222° |
| 2026-04-29 12:50 | 6.18861 | 100.39732 | 26 ft | 151 kts | 222° |
| 2026-04-29 12:50 | 6.18024 | 100.38958 | 415 ft | 163 kts | 222° |
| 2026-04-29 12:50 | 6.17178 | 100.38208 | 1023 ft | 163 kts | 220° |
| 2026-04-29 12:50 | 6.16325 | 100.37455 | 1606 ft | 163 kts | 222° |
| 2026-04-29 12:51 | 6.15466 | 100.36666 | 2021 ft | 176 kts | 223° |
| 2026-04-29 12:51 | 6.14506 | 100.35779 | 2262 ft | 199 kts | 223° |
| 2026-04-29 12:51 | 6.13424 | 100.34783 | 2497 ft | 224 kts | 222° |
| 2026-04-29 12:51 | 6.12213 | 100.33676 | 2822 ft | 247 kts | 220° |
| 2026-04-29 12:52 | 6.10659 | 100.32866 | 3174 ft | 267 kts | 187° |
| 2026-04-29 12:52 | 6.08812 | 100.33091 | 3771 ft | 275 kts | 158° |
| 2026-04-29 12:52 | 6.07083 | 100.33911 | 4001 ft | 274 kts | 148° |
| 2026-04-29 12:52 | 6.05461 | 100.34946 | 4692 ft | 276 kts | 144° |
| 2026-04-29 12:53 | 6.03872 | 100.36031 | 5627 ft | 277 kts | 144° |
| 2026-04-29 12:53 | 6.02268 | 100.37114 | 6458 ft | 279 kts | 144° |
| 2026-04-29 12:53 | 6.00631 | 100.38183 | 7231 ft | 282 kts | 146° |
| 2026-04-29 12:53 | 5.98960 | 100.39238 | 7985 ft | 285 kts | 146° |
| 2026-04-29 12:54 | 5.97255 | 100.40287 | 8725 ft | 289 kts | 147° |
| 2026-04-29 12:54 | 5.95552 | 100.41319 | 9461 ft | 292 kts | 147° |
| 2026-04-29 12:54 | 5.93800 | 100.42371 | 10139 ft | 297 kts | 147° |
| 2026-04-29 12:54 | 5.91958 | 100.43475 | 10337 ft | 319 kts | 147° |
| 2026-04-29 12:55 | 5.89982 | 100.44659 | 10456 ft | 342 kts | 148° |
| 2026-04-29 12:55 | 5.87880 | 100.45921 | 10702 ft | 358 kts | 148° |
| 2026-04-29 12:55 | 5.85727 | 100.47216 | 11247 ft | 364 kts | 148° |
| 2026-04-29 12:55 | 5.83540 | 100.48531 | 11845 ft | 368 kts | 148° |
| 2026-04-29 12:56 | 5.81335 | 100.49854 | 12447 ft | 371 kts | 148° |
| 2026-04-29 12:56 | 5.79113 | 100.51185 | 13047 ft | 374 kts | 148° |
| 2026-04-29 12:56 | 5.76891 | 100.52504 | 13628 ft | 377 kts | 148° |
| 2026-04-29 12:56 | 5.74604 | 100.53815 | 14143 ft | 380 kts | 149° |
| 2026-04-29 12:57 | 5.72289 | 100.55116 | 14664 ft | 383 kts | 149° |
| 2026-04-29 12:57 | 5.69952 | 100.56420 | 15160 ft | 386 kts | 149° |
| 2026-04-29 12:57 | 5.67597 | 100.57734 | 15689 ft | 388 kts | 149° |
| 2026-04-29 12:57 | 5.65238 | 100.59058 | 16231 ft | 390 kts | 149° |
| 2026-04-29 12:58 | 5.62868 | 100.60393 | 16744 ft | 392 kts | 149° |
| 2026-04-29 12:58 | 5.60484 | 100.61739 | 17239 ft | 394 kts | 149° |
| 2026-04-29 12:58 | 5.58119 | 100.63077 | 17741 ft | 397 kts | 149° |
| 2026-04-29 12:58 | 5.55703 | 100.64445 | 18224 ft | 400 kts | 149° |
| 2026-04-29 12:59 | 5.53273 | 100.65818 | 18662 ft | 402 kts | 149° |
| 2026-04-29 12:59 | 5.50828 | 100.67198 | 19073 ft | 405 kts | 149° |
| 2026-04-29 12:59 | 5.48368 | 100.68590 | 19482 ft | 407 kts | 149° |
| 2026-04-29 12:59 | 5.45889 | 100.69994 | 19899 ft | 410 kts | 149° |
| 2026-04-29 13:00 | 5.43415 | 100.71430 | 20299 ft | 412 kts | 145° |
| 2026-04-29 13:00 | 5.41246 | 100.73300 | 20691 ft | 413 kts | 131° |
| 2026-04-29 13:00 | 5.39630 | 100.75632 | 21061 ft | 415 kts | 117° |
| 2026-04-29 13:00 | 5.38629 | 100.78350 | 21417 ft | 417 kts | 102° |
| 2026-04-29 13:01 | 5.38349 | 100.81249 | 21772 ft | 421 kts | 88° |
| 2026-04-29 13:01 | 5.38754 | 100.84164 | 22123 ft | 424 kts | 80° |
| 2026-04-29 13:01 | 5.39303 | 100.87076 | 22485 ft | 426 kts | 80° |
| 2026-04-29 13:01 | 5.39855 | 100.90004 | 22808 ft | 428 kts | 80° |
| 2026-04-29 13:02 | 5.40408 | 100.92954 | 22887 ft | 433 kts | 80° |
| 2026-04-29 13:02 | 5.40966 | 100.95953 | 22896 ft | 442 kts | 80° |
| 2026-04-29 13:02 | 5.41522 | 100.98962 | 22902 ft | 447 kts | 80° |
| 2026-04-29 13:02 | 5.42089 | 101.02035 | 22903 ft | 448 kts | 80° |
| 2026-04-29 13:03 | 5.42656 | 101.05107 | 22910 ft | 448 kts | 80° |
| 2026-04-29 13:03 | 5.43226 | 101.08180 | 22905 ft | 448 kts | 80° |
| 2026-04-29 13:03 | 5.43795 | 101.11253 | 22906 ft | 448 kts | 80° |
| 2026-04-29 13:03 | 5.44367 | 101.14331 | 22902 ft | 448 kts | 80° |
| 2026-04-29 13:04 | 5.44937 | 101.17403 | 22900 ft | 448 kts | 80° |
| 2026-04-29 13:04 | 5.45508 | 101.20476 | 22907 ft | 448 kts | 80° |
| 2026-04-29 13:04 | 5.46071 | 101.23508 | 22906 ft | 448 kts | 80° |
| 2026-04-29 13:04 | 5.46643 | 101.26586 | 22907 ft | 448 kts | 80° |
| 2026-04-29 13:05 | 5.47215 | 101.29659 | 22907 ft | 448 kts | 80° |
| 2026-04-29 13:05 | 5.47784 | 101.32734 | 22909 ft | 449 kts | 81° |
| 2026-04-29 13:05 | 5.48353 | 101.35811 | 22898 ft | 449 kts | 81° |
| 2026-04-29 13:05 | 5.48921 | 101.38896 | 22904 ft | 449 kts | 81° |
| 2026-04-29 13:06 | 5.49486 | 101.41972 | 22901 ft | 449 kts | 81° |
| 2026-04-29 13:06 | 5.50054 | 101.45059 | 22903 ft | 449 kts | 81° |
| 2026-04-29 13:06 | 5.50616 | 101.48100 | 22907 ft | 449 kts | 81° |
| 2026-04-29 13:06 | 5.51186 | 101.51181 | 22905 ft | 449 kts | 81° |
| 2026-04-29 13:07 | 5.51755 | 101.54262 | 22790 ft | 447 kts | 81° |
| 2026-04-29 13:07 | 5.52319 | 101.57319 | 22530 ft | 443 kts | 81° |
| 2026-04-29 13:07 | 5.52878 | 101.60352 | 22279 ft | 441 kts | 81° |
| 2026-04-29 13:07 | 5.53434 | 101.63373 | 22030 ft | 439 kts | 81° |
| 2026-04-29 13:08 | 5.53988 | 101.66375 | 21497 ft | 435 kts | 81° |
| 2026-04-29 13:08 | 5.54539 | 101.69344 | 20849 ft | 431 kts | 81° |
| 2026-04-29 13:08 | 5.55079 | 101.72251 | 20243 ft | 428 kts | 81° |
| 2026-04-29 13:08 | 5.55617 | 101.75175 | 19635 ft | 425 kts | 81° |
| 2026-04-29 13:09 | 5.56150 | 101.78079 | 19042 ft | 422 kts | 81° |
| 2026-04-29 13:09 | 5.56681 | 101.80970 | 18484 ft | 419 kts | 81° |
| 2026-04-29 13:09 | 5.57207 | 101.83832 | 17899 ft | 416 kts | 81° |
| 2026-04-29 13:09 | 5.57732 | 101.86675 | 17358 ft | 412 kts | 81° |
| 2026-04-29 13:10 | 5.58202 | 101.89222 | 16883 ft | 408 kts | 80° |
| 2026-04-29 13:10 | 5.58875 | 101.91968 | 16363 ft | 404 kts | 72° |
| 2026-04-29 13:10 | 5.60023 | 101.94488 | 15859 ft | 402 kts | 60° |
| 2026-04-29 13:10 | 5.61641 | 101.96760 | 15316 ft | 401 kts | 50° |
| 2026-04-29 13:11 | 5.63579 | 101.98766 | 14774 ft | 399 kts | 46° |
| 2026-04-29 13:11 | 5.65529 | 102.00741 | 14214 ft | 397 kts | 46° |
| 2026-04-29 13:11 | 5.67450 | 102.02690 | 13953 ft | 390 kts | 46° |
| 2026-04-29 13:11 | 5.69349 | 102.04618 | 13858 ft | 386 kts | 47° |
| 2026-04-29 13:12 | 5.71236 | 102.06541 | 13878 ft | 387 kts | 47° |
| 2026-04-29 13:12 | 5.73124 | 102.08465 | 13880 ft | 387 kts | 47° |
| 2026-04-29 13:12 | 5.74987 | 102.10362 | 13879 ft | 387 kts | 47° |
| 2026-04-29 13:12 | 5.76856 | 102.12262 | 13769 ft | 376 kts | 46° |
| 2026-04-29 13:13 | 5.78707 | 102.14145 | 12890 ft | 378 kts | 46° |
| 2026-04-29 13:13 | 5.80529 | 102.16000 | 12032 ft | 368 kts | 46° |
| 2026-04-29 13:13 | 5.82306 | 102.17805 | 11193 ft | 359 kts | 46° |
| 2026-04-29 13:13 | 5.84038 | 102.19564 | 10466 ft | 348 kts | 46° |
| 2026-04-29 13:14 | 5.85695 | 102.21247 | 10025 ft | 330 kts | 46° |
| 2026-04-29 13:14 | 5.87275 | 102.22851 | 9554 ft | 317 kts | 46° |
| 2026-04-29 13:14 | 5.88820 | 102.24405 | 9311 ft | 309 kts | 43° |
| 2026-04-29 13:14 | 5.90592 | 102.25478 | 9186 ft | 300 kts | 19° |
| 2026-04-29 13:15 | 5.92624 | 102.25674 | 9052 ft | 293 kts | 353° |
| 2026-04-29 13:15 | 5.94557 | 102.24987 | 8376 ft | 305 kts | 327° |
| 2026-04-29 13:15 | 5.96242 | 102.23676 | 7791 ft | 304 kts | 322° |
| 2026-04-29 13:15 | 5.97875 | 102.22376 | 7306 ft | 294 kts | 323° |
| 2026-04-29 13:16 | 5.99461 | 102.21128 | 6836 ft | 285 kts | 323° |
| 2026-04-29 13:16 | 6.01002 | 102.19921 | 6404 ft | 277 kts | 323° |
| 2026-04-29 13:16 | 6.02482 | 102.18767 | 5968 ft | 268 kts | 323° |
| 2026-04-29 13:16 | 6.03931 | 102.17641 | 5548 ft | 259 kts | 323° |
| 2026-04-29 13:17 | 6.05333 | 102.16555 | 5158 ft | 251 kts | 323° |
| 2026-04-29 13:17 | 6.06701 | 102.15494 | 4783 ft | 247 kts | 324° |
| 2026-04-29 13:17 | 6.08088 | 102.14478 | 4400 ft | 247 kts | 332° |
| 2026-04-29 13:17 | 6.09672 | 102.13827 | 4017 ft | 246 kts | 348° |
| 2026-04-29 13:18 | 6.11360 | 102.13646 | 3610 ft | 242 kts | 4° |
| 2026-04-29 13:18 | 6.12999 | 102.13873 | 3214 ft | 235 kts | 12° |
| 2026-04-29 13:18 | 6.14556 | 102.14141 | 3020 ft | 222 kts | 12° |
| 2026-04-29 13:18 | 6.16052 | 102.14395 | 2949 ft | 216 kts | 12° |
| 2026-04-29 13:19 | 6.17420 | 102.14929 | 2860 ft | 210 kts | 39° |
| 2026-04-29 13:19 | 6.18352 | 102.16028 | 2752 ft | 208 kts | 65° |
| 2026-04-29 13:19 | 6.18675 | 102.17439 | 2331 ft | 211 kts | 91° |
| 2026-04-29 13:19 | 6.18464 | 102.18876 | 2122 ft | 205 kts | 99° |
| 2026-04-29 13:20 | 6.18211 | 102.20276 | 2046 ft | 201 kts | 99° |
| 2026-04-29 13:20 | 6.17976 | 102.21666 | 1696 ft | 201 kts | 98° |
| 2026-04-29 13:20 | 6.17756 | 102.22995 | 1704 ft | 188 kts | 99° |
| 2026-04-29 13:20 | 6.17549 | 102.24215 | 1698 ft | 170 kts | 99° |
| 2026-04-29 13:21 | 6.17335 | 102.25470 | 2216 ft | 189 kts | 97° |
| 2026-04-29 13:21 | 6.17122 | 102.26835 | 2440 ft | 212 kts | 99° |
| 2026-04-29 13:21 | 6.16855 | 102.28325 | 2454 ft | 220 kts | 99° |
| 2026-04-29 13:21 | 6.16576 | 102.29848 | 2485 ft | 220 kts | 99° |
| 2026-04-29 13:22 | 6.16297 | 102.31366 | 2726 ft | 222 kts | 98° |
| 2026-04-29 13:22 | 6.15921 | 102.32878 | 2957 ft | 225 kts | 109° |
| 2026-04-29 13:22 | 6.15304 | 102.34304 | 3058 ft | 226 kts | 114° |
| 2026-04-29 13:22 | 6.14638 | 102.35735 | 3083 ft | 225 kts | 106° |
| 2026-04-29 13:23 | 6.14575 | 102.37268 | 3085 ft | 222 kts | 71° |
| 2026-04-29 13:23 | 6.15430 | 102.38543 | 3085 ft | 224 kts | 39° |
| 2026-04-29 13:23 | 6.16827 | 102.39226 | 3089 ft | 227 kts | 12° |
| 2026-04-29 13:23 | 6.18405 | 102.39200 | 3086 ft | 231 kts | 346° |
| 2026-04-29 13:24 | 6.19826 | 102.38450 | 3089 ft | 234 kts | 319° |
| 2026-04-29 13:24 | 6.20755 | 102.37117 | 2943 ft | 235 kts | 290° |
| 2026-04-29 13:24 | 6.20940 | 102.35499 | 2579 ft | 236 kts | 265° |
| 2026-04-29 13:24 | 6.20925 | 102.33848 | 2198 ft | 237 kts | 276° |
| 2026-04-29 13:25 | 6.21134 | 102.32248 | 2084 ft | 234 kts | 279° |
| 2026-04-29 13:25 | 6.21621 | 102.28991 | 2081 ft | 230 kts | 279° |
| 2026-04-29 13:25 | 6.21853 | 102.27427 | 2086 ft | 224 kts | 279° |
| 2026-04-29 13:26 | 6.22083 | 102.25923 | 2083 ft | 211 kts | 279° |
| 2026-04-29 13:26 | 6.22290 | 102.24513 | 2076 ft | 196 kts | 279° |
| 2026-04-29 13:26 | 6.22485 | 102.23213 | 2126 ft | 184 kts | 279° |
| 2026-04-29 13:26 | 6.22677 | 102.21955 | 2072 ft | 179 kts | 279° |
| 2026-04-29 13:27 | 6.22860 | 102.20742 | 1870 ft | 177 kts | 279° |
| 2026-04-29 13:27 | 6.23049 | 102.19518 | 1785 ft | 177 kts | 279° |
| 2026-04-29 13:27 | 6.23243 | 102.18289 | 1767 ft | 179 kts | 279° |
| 2026-04-29 13:27 | 6.23389 | 102.17050 | 1766 ft | 179 kts | 265° |
| 2026-04-29 13:28 | 6.22864 | 102.15875 | 1784 ft | 195 kts | 223° |
| 2026-04-29 13:28 | 6.21682 | 102.15227 | 1784 ft | 196 kts | 189° |
| 2026-04-29 13:28 | 6.20348 | 102.15304 | 1787 ft | 192 kts | 158° |
| 2026-04-29 13:28 | 6.19273 | 102.16044 | 1772 ft | 188 kts | 128° |
| 2026-04-29 13:29 | 6.18736 | 102.17214 | 1780 ft | 186 kts | 100° |
| 2026-04-29 13:29 | 6.18521 | 102.18478 | 1767 ft | 186 kts | 98° |
| 2026-04-29 13:29 | 6.18307 | 102.19760 | 1648 ft | 184 kts | 99° |
| 2026-04-29 13:29 | 6.18102 | 102.20971 | 1442 ft | 169 kts | 98° |
| 2026-04-29 13:30 | 6.17911 | 102.22101 | 1241 ft | 160 kts | 98° |
| 2026-04-29 13:30 | 6.17730 | 102.23163 | 1042 ft | 150 kts | 98° |
| 2026-04-29 13:30 | 6.17557 | 102.24177 | 870 ft | 146 kts | 99° |
| 2026-04-29 13:30 | 6.17386 | 102.25185 | 667 ft | 146 kts | 97° |
| 2026-04-29 13:31 | 6.17213 | 102.26195 | 487 ft | 148 kts | 101° |
| 2026-04-29 13:31 | 6.17049 | 102.27214 | 319 ft | 149 kts | 99° |
| 2026-04-29 13:31 | 6.16869 | 102.28214 | 127 ft | 147 kts | 99° |
| 2026-04-29 13:31 | 6.16704 | 102.29187 | 23 ft | 124 kts | 99° |
| 2026-04-29 13:32 | 6.16590 | 102.29862 | 21 ft | 73 kts | 99° |
| 2026-04-29 13:32 | 6.16539 | 102.30167 | 21 ft | 22 kts | 101° |
| 2026-04-29 13:32 | 6.16532 | 102.30246 | 22 ft | 7 kts | 72° |
| 2026-04-29 13:32 | 6.16562 | 102.30271 | 23 ft | 6 kts | 21° |
| 2026-04-29 13:33 | 6.16608 | 102.30281 | 22 ft | 7 kts | 10° |
| 2026-04-29 13:33 | 6.16652 | 102.30285 | 22 ft | 6 kts | 349° |
| 2026-04-29 13:33 | 6.16674 | 102.30258 | 22 ft | 5 kts | 293° |
| 2026-04-29 13:33 | 6.16681 | 102.30230 | 22 ft | 4 kts | 279° |
| 2026-04-29 13:34 | 6.16685 | 102.30208 | 22 ft | 3 kts | 279° |
| 2026-04-29 13:34 | 6.16687 | 102.30193 | 22 ft | 2 kts | 279° |
| 2026-04-29 13:34 | 6.16689 | 102.30184 | 22 ft | 1 kts | 279° |
| 2026-04-29 13:34 | 6.16695 | 102.30150 | 24 ft | 13 kts | 281° |
| 2026-04-29 13:35 | 6.16712 | 102.30051 | 22 ft | 14 kts | 278° |
| 2026-04-29 13:35 | 6.16726 | 102.29961 | 23 ft | 12 kts | 278° |
| 2026-04-29 13:35 | 6.16740 | 102.29880 | 23 ft | 11 kts | 281° |
| 2026-04-29 13:35 | 6.16757 | 102.29795 | 22 ft | 16 kts | 281° |
| 2026-04-29 13:36 | 6.16781 | 102.29653 | 22 ft | 23 kts | 279° |
| 2026-04-29 13:36 | 6.16808 | 102.29489 | 22 ft | 24 kts | 280° |
| 2026-04-29 13:36 | 6.16835 | 102.29325 | 22 ft | 20 kts | 279° |
| 2026-04-29 13:36 | 6.16872 | 102.29193 | 23 ft | 19 kts | 289° |
| 2026-04-29 13:37 | 6.16917 | 102.29096 | 24 ft | 6 kts | 299° |
| 2026-04-29 13:37 | 6.16939 | 102.29068 | 23 ft | 4 kts | 339° |
| 2026-04-29 13:37 | 6.16969 | 102.29071 | 22 ft | 5 kts | 9° |
| 2026-04-29 13:37 | 6.16978 | 102.29073 | 22 ft | 0 kts | 9° |